sensor_id;sensor_type;location;lat;lon;timestamp;pressure;altitude;pressure_sealevel;temperature
19568;BMP280;9930;49.240;8.548;2023-02-07T00:01:38;102551.03;;;5.73
19568;BMP280;9930;49.240;8.548;2023-02-07T00:04:06;102544.19;;;5.72
19568;BMP280;9930;49.240;8.548;2023-02-07T00:06:34;102550.88;;;5.72
19568;BMP280;9930;49.240;8.548;2023-02-07T00:09:06;102557.72;;;5.73
19568;BMP280;9930;49.240;8.548;2023-02-07T00:11:32;102554.03;;;5.69
19568;BMP280;9930;49.240;8.548;2023-02-07T00:14:01;102537.53;;;5.64
19568;BMP280;9930;49.240;8.548;2023-02-07T00:16:27;102548.81;;;5.68
19568;BMP280;9930;49.240;8.548;2023-02-07T00:18:54;102548.22;;;5.70
19568;BMP280;9930;49.240;8.548;2023-02-07T00:21:25;102534.84;;;5.63
19568;BMP280;9930;49.240;8.548;2023-02-07T00:23:52;102538.88;;;5.61
19568;BMP280;9930;49.240;8.548;2023-02-07T00:26:22;102537.84;;;5.59
19568;BMP280;9930;49.240;8.548;2023-02-07T00:28:51;102555.25;;;5.64
19568;BMP280;9930;49.240;8.548;2023-02-07T00:31:26;102562.56;;;5.61
19568;BMP280;9930;49.240;8.548;2023-02-07T00:33:57;102566.88;;;5.62
19568;BMP280;9930;49.240;8.548;2023-02-07T00:36:31;102546.81;;;5.55
19568;BMP280;9930;49.240;8.548;2023-02-07T00:39:00;102552.28;;;5.60
19568;BMP280;9930;49.240;8.548;2023-02-07T00:41:29;102553.63;;;5.65
19568;BMP280;9930;49.240;8.548;2023-02-07T00:43:55;102545.31;;;5.57
19568;BMP280;9930;49.240;8.548;2023-02-07T00:46:26;102548.59;;;5.56
19568;BMP280;9930;49.240;8.548;2023-02-07T00:48:54;102560.19;;;5.63
19568;BMP280;9930;49.240;8.548;2023-02-07T00:51:22;102551.00;;;5.54
19568;BMP280;9930;49.240;8.548;2023-02-07T00:53:52;102561.06;;;5.63
19568;BMP280;9930;49.240;8.548;2023-02-07T00:56:24;102556.19;;;5.56
19568;BMP280;9930;49.240;8.548;2023-02-07T00:58:50;102557.66;;;5.63
19568;BMP280;9930;49.240;8.548;2023-02-07T01:01:19;102564.06;;;5.59
19568;BMP280;9930;49.240;8.548;2023-02-07T01:03:52;102553.66;;;5.56
19568;BMP280;9930;49.240;8.548;2023-02-07T01:06:19;102568.72;;;5.54
19568;BMP280;9930;49.240;8.548;2023-02-07T01:08:49;102563.97;;;5.49
19568;BMP280;9930;49.240;8.548;2023-02-07T01:11:18;102569.59;;;5.55
19568;BMP280;9930;49.240;8.548;2023-02-07T01:13:49;102575.41;;;5.54
19568;BMP280;9930;49.240;8.548;2023-02-07T01:16:22;102565.00;;;5.51
19568;BMP280;9930;49.240;8.548;2023-02-07T01:18:50;102582.25;;;5.55
19568;BMP280;9930;49.240;8.548;2023-02-07T01:21:22;102578.69;;;5.53
19568;BMP280;9930;49.240;8.548;2023-02-07T01:23:53;102575.28;;;5.52
19568;BMP280;9930;49.240;8.548;2023-02-07T01:26:23;102583.00;;;5.54
19568;BMP280;9930;49.240;8.548;2023-02-07T01:28:49;102569.31;;;5.52
19568;BMP280;9930;49.240;8.548;2023-02-07T01:31:19;102567.41;;;5.49
19568;BMP280;9930;49.240;8.548;2023-02-07T01:33:55;102564.72;;;5.48
19568;BMP280;9930;49.240;8.548;2023-02-07T01:36:22;102553.56;;;5.46
19568;BMP280;9930;49.240;8.548;2023-02-07T01:38:51;102547.47;;;5.44
19568;BMP280;9930;49.240;8.548;2023-02-07T01:41:22;102558.94;;;5.40
19568;BMP280;9930;49.240;8.548;2023-02-07T01:46:45;102565.69;;;5.31
19568;BMP280;9930;49.240;8.548;2023-02-07T01:49:21;102559.78;;;5.22
19568;BMP280;9930;49.240;8.548;2023-02-07T01:52:07;102583.88;;;5.27
19568;BMP280;9930;49.240;8.548;2023-02-07T01:54:35;102584.47;;;5.25
19568;BMP280;9930;49.240;8.548;2023-02-07T01:57:07;102598.00;;;5.25
19568;BMP280;9930;49.240;8.548;2023-02-07T01:59:37;102606.72;;;5.18
19568;BMP280;9930;49.240;8.548;2023-02-07T02:02:13;102611.13;;;5.21
19568;BMP280;9930;49.240;8.548;2023-02-07T02:04:40;102615.94;;;5.18
19568;BMP280;9930;49.240;8.548;2023-02-07T02:07:09;102611.47;;;5.15
19568;BMP280;9930;49.240;8.548;2023-02-07T02:09:37;102590.81;;;5.02
19568;BMP280;9930;49.240;8.548;2023-02-07T02:12:12;102604.94;;;5.09
19568;BMP280;9930;49.240;8.548;2023-02-07T02:18:07;102613.00;;;5.05
19568;BMP280;9930;49.240;8.548;2023-02-07T02:26:54;102616.75;;;4.91
19568;BMP280;9930;49.240;8.548;2023-02-07T02:30:19;102612.88;;;4.86
19568;BMP280;9930;49.240;8.548;2023-02-07T02:33:32;102605.75;;;4.82
19568;BMP280;9930;49.240;8.548;2023-02-07T02:36:42;102593.25;;;4.75
19568;BMP280;9930;49.240;8.548;2023-02-07T02:42:24;102605.31;;;4.77
19568;BMP280;9930;49.240;8.548;2023-02-07T02:45:02;102602.03;;;4.78
19568;BMP280;9930;49.240;8.548;2023-02-07T02:47:33;102608.28;;;4.73
19568;BMP280;9930;49.240;8.548;2023-02-07T02:50:00;102606.97;;;4.68
19568;BMP280;9930;49.240;8.548;2023-02-07T02:52:26;102607.56;;;4.66
19568;BMP280;9930;49.240;8.548;2023-02-07T02:54:56;102615.72;;;4.63
19568;BMP280;9930;49.240;8.548;2023-02-07T03:12:15;102602.50;;;4.40
19568;BMP280;9930;49.240;8.548;2023-02-07T03:15:05;102614.53;;;4.42
19568;BMP280;9930;49.240;8.548;2023-02-07T03:18:05;102598.66;;;4.35
19568;BMP280;9930;49.240;8.548;2023-02-07T03:21:20;102605.47;;;4.36
19568;BMP280;9930;49.240;8.548;2023-02-07T03:23:52;102602.50;;;4.31
19568;BMP280;9930;49.240;8.548;2023-02-07T03:26:22;102601.31;;;4.28
19568;BMP280;9930;49.240;8.548;2023-02-07T03:28:52;102590.16;;;4.26
19568;BMP280;9930;49.240;8.548;2023-02-07T03:31:23;102584.53;;;4.28
19568;BMP280;9930;49.240;8.548;2023-02-07T03:33:57;102594.63;;;4.28
19568;BMP280;9930;49.240;8.548;2023-02-07T03:36:34;102601.63;;;4.31
19568;BMP280;9930;49.240;8.548;2023-02-07T03:39:03;102589.72;;;4.21
19568;BMP280;9930;49.240;8.548;2023-02-07T03:41:52;102600.28;;;4.26
19568;BMP280;9930;49.240;8.548;2023-02-07T03:44:26;102603.53;;;4.25
19568;BMP280;9930;49.240;8.548;2023-02-07T03:46:53;102607.69;;;4.24
19568;BMP280;9930;49.240;8.548;2023-02-07T03:49:20;102596.84;;;4.16
19568;BMP280;9930;49.240;8.548;2023-02-07T03:51:49;102607.56;;;4.22
19568;BMP280;9930;49.240;8.548;2023-02-07T03:54:19;102613.34;;;4.21
19568;BMP280;9930;49.240;8.548;2023-02-07T03:56:49;102617.94;;;4.17
19568;BMP280;9930;49.240;8.548;2023-02-07T03:59:18;102621.22;;;4.16
19568;BMP280;9930;49.240;8.548;2023-02-07T04:01:50;102616.00;;;4.14
19568;BMP280;9930;49.240;8.548;2023-02-07T04:04:19;102602.34;;;4.12
19568;BMP280;9930;49.240;8.548;2023-02-07T04:06:49;102594.16;;;4.06
19568;BMP280;9930;49.240;8.548;2023-02-07T04:09:19;102601.28;;;4.10
19568;BMP280;9930;49.240;8.548;2023-02-07T04:11:49;102600.25;;;4.08
19568;BMP280;9930;49.240;8.548;2023-02-07T04:14:19;102608.56;;;4.07
19568;BMP280;9930;49.240;8.548;2023-02-07T04:16:48;102589.69;;;3.95
19568;BMP280;9930;49.240;8.548;2023-02-07T04:19:21;102603.66;;;4.00
19568;BMP280;9930;49.240;8.548;2023-02-07T04:21:48;102601.72;;;3.98
19568;BMP280;9930;49.240;8.548;2023-02-07T04:24:17;102585.97;;;3.92
19568;BMP280;9930;49.240;8.548;2023-02-07T04:26:48;102598.91;;;3.95
19568;BMP280;9930;49.240;8.548;2023-02-07T04:29:15;102592.66;;;3.91
19568;BMP280;9930;49.240;8.548;2023-02-07T04:31:43;102575.84;;;3.83
19568;BMP280;9930;49.240;8.548;2023-02-07T04:34:09;102577.34;;;3.81
19568;BMP280;9930;49.240;8.548;2023-02-07T04:36:39;102585.66;;;3.80
19568;BMP280;9930;49.240;8.548;2023-02-07T04:39:08;102602.16;;;3.85
19568;BMP280;9930;49.240;8.548;2023-02-07T04:41:39;102609.88;;;3.86
19568;BMP280;9930;49.240;8.548;2023-02-07T04:44:06;102592.03;;;3.76
19568;BMP280;9930;49.240;8.548;2023-02-07T04:46:34;102607.63;;;3.81
19568;BMP280;9930;49.240;8.548;2023-02-07T04:49:02;102593.94;;;3.70
19568;BMP280;9930;49.240;8.548;2023-02-07T04:51:31;102593.78;;;3.69
19568;BMP280;9930;49.240;8.548;2023-02-07T04:53:59;102608.66;;;3.74
19568;BMP280;9930;49.240;8.548;2023-02-07T04:56:28;102605.97;;;3.73
19568;BMP280;9930;49.240;8.548;2023-02-07T04:58:53;102596.91;;;3.66
19568;BMP280;9930;49.240;8.548;2023-02-07T05:01:21;102611.59;;;3.70
19568;BMP280;9930;49.240;8.548;2023-02-07T05:03:51;102606.84;;;3.65
19568;BMP280;9930;49.240;8.548;2023-02-07T05:06:19;102613.97;;;3.69
19568;BMP280;9930;49.240;8.548;2023-02-07T05:08:50;102616.34;;;3.67
19568;BMP280;9930;49.240;8.548;2023-02-07T05:11:20;102603.69;;;3.58
19568;BMP280;9930;49.240;8.548;2023-02-07T05:13:51;102611.88;;;3.65
19568;BMP280;9930;49.240;8.548;2023-02-07T05:16:21;102618.56;;;3.64
19568;BMP280;9930;49.240;8.548;2023-02-07T05:19:14;102618.25;;;3.61
19568;BMP280;9930;49.240;8.548;2023-02-07T05:21:49;102618.25;;;3.61
19568;BMP280;9930;49.240;8.548;2023-02-07T05:24:20;102602.94;;;3.51
19568;BMP280;9930;49.240;8.548;2023-02-07T05:26:49;102613.63;;;3.57
19568;BMP280;9930;49.240;8.548;2023-02-07T05:29:17;102615.28;;;3.56
19568;BMP280;9930;49.240;8.548;2023-02-07T05:31:44;102601.72;;;3.47
19568;BMP280;9930;49.240;8.548;2023-02-07T05:34:28;102624.00;;;3.51
19568;BMP280;9930;49.240;8.548;2023-02-07T05:36:56;102634.84;;;3.50
19568;BMP280;9930;49.240;8.548;2023-02-07T05:39:22;102610.16;;;3.39
19568;BMP280;9930;49.240;8.548;2023-02-07T05:41:49;102592.75;;;3.34
19568;BMP280;9930;49.240;8.548;2023-02-07T05:44:19;102617.00;;;3.40
19568;BMP280;9930;49.240;8.548;2023-02-07T05:46:47;102629.47;;;3.47
19568;BMP280;9930;49.240;8.548;2023-02-07T05:49:19;102617.00;;;3.40
19568;BMP280;9930;49.240;8.548;2023-02-07T05:51:47;102622.34;;;3.43
19568;BMP280;9930;49.240;8.548;2023-02-07T05:54:14;102629.59;;;3.40
19568;BMP280;9930;49.240;8.548;2023-02-07T05:56:49;102615.91;;;3.30
19568;BMP280;9930;49.240;8.548;2023-02-07T05:59:16;102643.69;;;3.38
19568;BMP280;9930;49.240;8.548;2023-02-07T06:01:44;102621.69;;;3.29
19568;BMP280;9930;49.240;8.548;2023-02-07T06:04:13;102642.31;;;3.33
19568;BMP280;9930;49.240;8.548;2023-02-07T06:06:38;102631.19;;;3.31
19568;BMP280;9930;49.240;8.548;2023-02-07T06:09:04;102631.03;;;3.30
19568;BMP280;9930;49.240;8.548;2023-02-07T06:11:30;102625.50;;;3.25
19568;BMP280;9930;49.240;8.548;2023-02-07T06:13:56;102622.69;;;3.22
19568;BMP280;9930;49.240;8.548;2023-02-07T06:16:21;102630.66;;;3.18
19568;BMP280;9930;49.240;8.548;2023-02-07T06:18:49;102640.03;;;3.19
19568;BMP280;9930;49.240;8.548;2023-02-07T06:21:22;102638.97;;;3.17
19568;BMP280;9930;49.240;8.548;2023-02-07T06:23:49;102651.31;;;3.22
19568;BMP280;9930;49.240;8.548;2023-02-07T06:26:19;102645.38;;;3.22
19568;BMP280;9930;49.240;8.548;2023-02-07T06:28:47;102645.22;;;3.20
19568;BMP280;9930;49.240;8.548;2023-02-07T06:31:14;102651.75;;;3.18
19568;BMP280;9930;49.240;8.548;2023-02-07T06:33:40;102641.59;;;3.10
19568;BMP280;9930;49.240;8.548;2023-02-07T06:36:09;102641.44;;;3.08
19568;BMP280;9930;49.240;8.548;2023-02-07T06:38:34;102638.91;;;3.08
19568;BMP280;9930;49.240;8.548;2023-02-07T06:41:00;102629.41;;;3.06
19568;BMP280;9930;49.240;8.548;2023-02-07T06:43:28;102643.69;;;3.14
19568;BMP280;9930;49.240;8.548;2023-02-07T06:45:54;102635.19;;;3.05
19568;BMP280;9930;49.240;8.548;2023-02-07T06:48:19;102642.91;;;3.06
19568;BMP280;9930;49.240;8.548;2023-02-07T06:50:49;102654.94;;;3.09
19568;BMP280;9930;49.240;8.548;2023-02-07T06:53:17;102659.84;;;3.07
19568;BMP280;9930;49.240;8.548;2023-02-07T06:55:43;102643.75;;;2.98
19568;BMP280;9930;49.240;8.548;2023-02-07T06:58:09;102667.06;;;3.04
19568;BMP280;9930;49.240;8.548;2023-02-07T07:00:37;102662.72;;;2.95
19568;BMP280;9930;49.240;8.548;2023-02-07T07:03:05;102676.13;;;3.02
19568;BMP280;9930;49.240;8.548;2023-02-07T07:05:34;102679.38;;;3.01
19568;BMP280;9930;49.240;8.548;2023-02-07T07:08:04;102663.44;;;2.93
19568;BMP280;9930;49.240;8.548;2023-02-07T07:10:30;102666.75;;;3.01
19568;BMP280;9930;49.240;8.548;2023-02-07T07:12:56;102663.75;;;2.97
19568;BMP280;9930;49.240;8.548;2023-02-07T07:15:21;102658.09;;;2.90
19568;BMP280;9930;49.240;8.548;2023-02-07T07:17:49;102653.94;;;2.91
19568;BMP280;9930;49.240;8.548;2023-02-07T07:20:22;102667.59;;;2.93
19568;BMP280;9930;49.240;8.548;2023-02-07T07:22:49;102683.19;;;2.98
19568;BMP280;9930;49.240;8.548;2023-02-07T07:25:21;102683.03;;;2.96
19568;BMP280;9930;49.240;8.548;2023-02-07T07:27:51;102684.66;;;2.96
19568;BMP280;9930;49.240;8.548;2023-02-07T07:30:19;102676.63;;;2.91
19568;BMP280;9930;49.240;8.548;2023-02-07T07:32:49;102693.44;;;2.99
19568;BMP280;9930;49.240;8.548;2023-02-07T07:35:16;102687.66;;;3.00
19568;BMP280;9930;49.240;8.548;2023-02-07T07:37:44;102686.78;;;3.00
19568;BMP280;9930;49.240;8.548;2023-02-07T07:40:16;102689.44;;;3.01
19568;BMP280;9930;49.240;8.548;2023-02-07T07:42:46;102693.03;;;3.03
19568;BMP280;9930;49.240;8.548;2023-02-07T07:45:17;102696.75;;;3.07
19568;BMP280;9930;49.240;8.548;2023-02-07T07:47:48;102674.31;;;3.01
19568;BMP280;9930;49.240;8.548;2023-02-07T07:50:17;102691.47;;;3.12
19568;BMP280;9930;49.240;8.548;2023-02-07T07:52:52;102680.00;;;3.07
19568;BMP280;9930;49.240;8.548;2023-02-07T07:55:23;102684.63;;;3.11
19568;BMP280;9930;49.240;8.548;2023-02-07T07:57:49;102703.22;;;3.20
19568;BMP280;9930;49.240;8.548;2023-02-07T08:00:21;102699.09;;;3.21
19568;BMP280;9930;49.240;8.548;2023-02-07T08:02:49;102699.09;;;3.21
19568;BMP280;9930;49.240;8.548;2023-02-07T08:05:19;102698.03;;;3.19
19568;BMP280;9930;49.240;8.548;2023-02-07T08:07:45;102708.75;;;3.25
19568;BMP280;9930;49.240;8.548;2023-02-07T08:10:19;102696.41;;;3.19
19568;BMP280;9930;49.240;8.548;2023-02-07T08:12:46;102712.50;;;3.29
19568;BMP280;9930;49.240;8.548;2023-02-07T08:15:13;102707.75;;;3.32
19568;BMP280;9930;49.240;8.548;2023-02-07T08:17:39;102714.13;;;3.28
19568;BMP280;9930;49.240;8.548;2023-02-07T08:20:05;102723.38;;;3.36
19568;BMP280;9930;49.240;8.548;2023-02-07T08:22:33;102724.41;;;3.38
19568;BMP280;9930;49.240;8.548;2023-02-07T08:24:59;102712.97;;;3.33
19568;BMP280;9930;49.240;8.548;2023-02-07T08:27:29;102732.63;;;3.44
19568;BMP280;9930;49.240;8.548;2023-02-07T08:29:58;102723.72;;;3.48
19568;BMP280;9930;49.240;8.548;2023-02-07T08:32:23;102719.75;;;3.50
19568;BMP280;9930;49.240;8.548;2023-02-07T08:34:49;102722.56;;;3.53
19568;BMP280;9930;49.240;8.548;2023-02-07T08:37:18;102719.31;;;3.54
19568;BMP280;9930;49.240;8.548;2023-02-07T08:39:44;102715.22;;;3.63
19568;BMP280;9930;49.240;8.548;2023-02-07T08:42:10;102699.91;;;3.62
19568;BMP280;9930;49.240;8.548;2023-02-07T08:44:36;102721.66;;;3.77
19568;BMP280;9930;49.240;8.548;2023-02-07T08:47:04;102709.63;;;3.74
19568;BMP280;9930;49.240;8.548;2023-02-07T08:49:32;102736.41;;;3.89
19568;BMP280;9930;49.240;8.548;2023-02-07T08:52:00;102726.47;;;3.91
19568;BMP280;9930;49.240;8.548;2023-02-07T08:54:26;102743.44;;;4.01
19568;BMP280;9930;49.240;8.548;2023-02-07T08:56:51;102731.25;;;3.97
19568;BMP280;9930;49.240;8.548;2023-02-07T08:59:19;102746.75;;;4.08
19568;BMP280;9930;49.240;8.548;2023-02-07T09:01:49;102749.88;;;4.14
19568;BMP280;9930;49.240;8.548;2023-02-07T09:04:17;102728.63;;;4.12
19568;BMP280;9930;49.240;8.548;2023-02-07T09:06:47;102741.00;;;4.27
19568;BMP280;9930;49.240;8.548;2023-02-07T09:09:14;102736.09;;;4.28
19568;BMP280;9930;49.240;8.548;2023-02-07T09:11:43;102738.66;;;4.37
19568;BMP280;9930;49.240;8.548;2023-02-07T09:14:09;102747.59;;;4.42
19568;BMP280;9930;49.240;8.548;2023-02-07T09:16:35;102747.75;;;4.43
19568;BMP280;9930;49.240;8.548;2023-02-07T09:19:04;102744.31;;;4.43
19568;BMP280;9930;49.240;8.548;2023-02-07T09:21:30;102737.47;;;4.42
19568;BMP280;9930;49.240;8.548;2023-02-07T09:24:01;102751.78;;;4.50
19568;BMP280;9930;49.240;8.548;2023-02-07T09:26:31;102760.84;;;4.57
19568;BMP280;9930;49.240;8.548;2023-02-07T09:29:04;102748.66;;;4.61
19568;BMP280;9930;49.240;8.548;2023-02-07T09:31:32;102743.75;;;4.63
19568;BMP280;9930;49.240;8.548;2023-02-07T09:33:58;102735.00;;;4.68
19568;BMP280;9930;49.240;8.548;2023-02-07T09:36:29;102757.78;;;4.85
19568;BMP280;9930;49.240;8.548;2023-02-07T09:38:58;102745.72;;;4.91
19568;BMP280;9930;49.240;8.548;2023-02-07T09:41:39;102738.44;;;4.94
19568;BMP280;9930;49.240;8.548;2023-02-07T09:44:25;102731.75;;;4.95
19568;BMP280;9930;49.240;8.548;2023-02-07T09:47:03;102746.63;;;5.09
19568;BMP280;9930;49.240;8.548;2023-02-07T09:52:37;102738.84;;;5.25
19568;BMP280;9930;49.240;8.548;2023-02-07T09:55:20;102731.69;;;5.29
19568;BMP280;9930;49.240;8.548;2023-02-07T10:01:00;102749.66;;;5.49
19568;BMP280;9930;49.240;8.548;2023-02-07T10:03:30;102740.41;;;5.50
19568;BMP280;9930;49.240;8.548;2023-02-07T10:06:06;102740.25;;;5.57
19568;BMP280;9930;49.240;8.548;2023-02-07T10:08:37;102740.69;;;5.62
19568;BMP280;9930;49.240;8.548;2023-02-07T10:14:41;102756.28;;;5.75
19568;BMP280;9930;49.240;8.548;2023-02-07T10:23:34;102757.59;;;5.89
19568;BMP280;9930;49.240;8.548;2023-02-07T10:31:27;102742.81;;;6.02
19568;BMP280;9930;49.240;8.548;2023-02-07T10:34:00;102753.25;;;6.05
19568;BMP280;9930;49.240;8.548;2023-02-07T10:36:30;102747.56;;;6.07
19568;BMP280;9930;49.240;8.548;2023-02-07T10:39:04;102767.38;;;6.11
19568;BMP280;9930;49.240;8.548;2023-02-07T10:41:41;102757.25;;;6.11
19568;BMP280;9930;49.240;8.548;2023-02-07T10:44:16;102749.91;;;6.14
19568;BMP280;9930;49.240;8.548;2023-02-07T10:47:00;102750.19;;;6.17
19568;BMP280;9930;49.240;8.548;2023-02-07T10:49:33;102735.59;;;6.15
19568;BMP280;9930;49.240;8.548;2023-02-07T10:54:58;102768.78;;;6.27
19568;BMP280;9930;49.240;8.548;2023-02-07T10:57:29;102749.41;;;6.27
19568;BMP280;9930;49.240;8.548;2023-02-07T11:05:28;102737.25;;;6.42
19568;BMP280;9930;49.240;8.548;2023-02-07T11:10:42;102723.75;;;6.52
19568;BMP280;9930;49.240;8.548;2023-02-07T11:13:22;102708.22;;;6.57
19568;BMP280;9930;49.240;8.548;2023-02-07T11:16:04;102712.81;;;6.61
19568;BMP280;9930;49.240;8.548;2023-02-07T11:18:43;102708.28;;;6.67
19568;BMP280;9930;49.240;8.548;2023-02-07T11:21:40;102715.28;;;6.70
19568;BMP280;9930;49.240;8.548;2023-02-07T11:24:24;102715.34;;;6.80
19568;BMP280;9930;49.240;8.548;2023-02-07T11:26:55;102719.19;;;6.85
19568;BMP280;9930;49.240;8.548;2023-02-07T11:29:27;102717.19;;;6.91
19568;BMP280;9930;49.240;8.548;2023-02-07T11:31:59;102713.97;;;7.02
19568;BMP280;9930;49.240;8.548;2023-02-07T11:34:51;102700.50;;;7.03
19568;BMP280;9930;49.240;8.548;2023-02-07T11:37:29;102711.88;;;7.17
19568;BMP280;9930;49.240;8.548;2023-02-07T11:40:21;102714.97;;;7.23
19568;BMP280;9930;49.240;8.548;2023-02-07T11:43:02;102703.44;;;7.27
19568;BMP280;9930;49.240;8.548;2023-02-07T11:45:31;102686.91;;;7.22
19568;BMP280;9930;49.240;8.548;2023-02-07T11:47:59;102700.53;;;7.32
19568;BMP280;9930;49.240;8.548;2023-02-07T11:50:37;102690.50;;;7.34
19568;BMP280;9930;49.240;8.548;2023-02-07T11:53:49;102692.69;;;7.39
19568;BMP280;9930;49.240;8.548;2023-02-07T11:56:25;102683.81;;;7.44
19568;BMP280;9930;49.240;8.548;2023-02-07T11:58:57;102695.13;;;7.48
19568;BMP280;9930;49.240;8.548;2023-02-07T12:01:30;102698.81;;;7.52
19568;BMP280;9930;49.240;8.548;2023-02-07T12:04:10;102702.66;;;7.57
19568;BMP280;9930;49.240;8.548;2023-02-07T12:06:43;102695.53;;;7.53
19568;BMP280;9930;49.240;8.548;2023-02-07T12:09:52;102699.75;;;7.62
19568;BMP280;9930;49.240;8.548;2023-02-07T12:12:49;102696.56;;;7.65
19568;BMP280;9930;49.240;8.548;2023-02-07T12:15:50;102683.88;;;7.65
19568;BMP280;9930;49.240;8.548;2023-02-07T12:18:33;102687.56;;;7.68
19568;BMP280;9930;49.240;8.548;2023-02-07T12:24:00;102680.44;;;7.64
19568;BMP280;9930;49.240;8.548;2023-02-07T12:26:42;102680.06;;;7.70
19568;BMP280;9930;49.240;8.548;2023-02-07T12:30:29;102677.94;;;7.74
19568;BMP280;9930;49.240;8.548;2023-02-07T12:36:13;102678.56;;;7.82
19568;BMP280;9930;49.240;8.548;2023-02-07T12:42:28;102660.41;;;7.88
19568;BMP280;9930;49.240;8.548;2023-02-07T12:45:01;102658.53;;;7.95
19568;BMP280;9930;49.240;8.548;2023-02-07T12:47:52;102654.84;;;8.02
19568;BMP280;9930;49.240;8.548;2023-02-07T12:50:45;102660.19;;;8.05
19568;BMP280;9930;49.240;8.548;2023-02-07T12:56:38;102655.09;;;8.05
19568;BMP280;9930;49.240;8.548;2023-02-07T13:13:20;102643.78;;;8.22
19568;BMP280;9930;49.240;8.548;2023-02-07T13:16:20;102644.28;;;8.18
19568;BMP280;9930;49.240;8.548;2023-02-07T13:19:00;102635.28;;;8.11
19568;BMP280;9930;49.240;8.548;2023-02-07T13:24:24;102645.81;;;8.16
19568;BMP280;9930;49.240;8.548;2023-02-07T13:27:02;102649.25;;;8.16
19568;BMP280;9930;49.240;8.548;2023-02-07T13:29:33;102658.16;;;8.21
19568;BMP280;9930;49.240;8.548;2023-02-07T13:32:06;102645.06;;;8.17
19568;BMP280;9930;49.240;8.548;2023-02-07T13:35:05;102642.91;;;8.21
19568;BMP280;9930;49.240;8.548;2023-02-07T13:37:55;102647.59;;;8.17
19568;BMP280;9930;49.240;8.548;2023-02-07T13:40:59;102637.56;;;8.18
19568;BMP280;9930;49.240;8.548;2023-02-07T13:44:02;102645.31;;;8.20
19568;BMP280;9930;49.240;8.548;2023-02-07T13:49:54;102646.72;;;8.16
19568;BMP280;9930;49.240;8.548;2023-02-07T13:52:43;102634.38;;;8.10
19568;BMP280;9930;49.240;8.548;2023-02-07T13:55:33;102644.81;;;8.13
19568;BMP280;9930;49.240;8.548;2023-02-07T13:58:03;102621.28;;;8.06
19568;BMP280;9930;49.240;8.548;2023-02-07T14:03:31;102630.81;;;8.08
19568;BMP280;9930;49.240;8.548;2023-02-07T14:06:36;102623.44;;;8.11
19568;BMP280;9930;49.240;8.548;2023-02-07T14:12:15;102635.16;;;8.20
19568;BMP280;9930;49.240;8.548;2023-02-07T14:14:55;102635.16;;;8.20
19568;BMP280;9930;49.240;8.548;2023-02-07T14:23:22;102624.22;;;8.21
19568;BMP280;9930;49.240;8.548;2023-02-07T14:25:50;102622.44;;;8.20
19568;BMP280;9930;49.240;8.548;2023-02-07T14:28:34;102615.56;;;8.19
19568;BMP280;9930;49.240;8.548;2023-02-07T14:31:22;102617.34;;;8.09
19568;BMP280;9930;49.240;8.548;2023-02-07T14:34:12;102627.13;;;8.15
19568;BMP280;9930;49.240;8.548;2023-02-07T14:36:39;102632.72;;;8.11
19568;BMP280;9930;49.240;8.548;2023-02-07T14:39:28;102632.97;;;8.14
19568;BMP280;9930;49.240;8.548;2023-02-07T14:42:23;102628.41;;;8.10
19568;BMP280;9930;49.240;8.548;2023-02-07T14:44:56;102628.66;;;8.13
19568;BMP280;9930;49.240;8.548;2023-02-07T14:47:27;102635.53;;;8.14
19568;BMP280;9930;49.240;8.548;2023-02-07T14:50:01;102642.38;;;8.15
19568;BMP280;9930;49.240;8.548;2023-02-07T14:52:34;102644.81;;;8.13
19568;BMP280;9930;49.240;8.548;2023-02-07T14:55:14;102646.31;;;8.11
19568;BMP280;9930;49.240;8.548;2023-02-07T14:58:00;102638.44;;;8.08
19568;BMP280;9930;49.240;8.548;2023-02-07T15:00:53;102622.56;;;8.01
19568;BMP280;9930;49.240;8.548;2023-02-07T15:03:28;102619.78;;;7.98
19568;BMP280;9930;49.240;8.548;2023-02-07T15:08:27;102629.16;;;7.99
19568;BMP280;9930;49.240;8.548;2023-02-07T15:11:04;102630.56;;;7.95
19568;BMP280;9930;49.240;8.548;2023-02-07T15:16:20;102638.81;;;7.93
19568;BMP280;9930;49.240;8.548;2023-02-07T15:21:49;102639.47;;;7.90
19568;BMP280;9930;49.240;8.548;2023-02-07T15:24:38;102632.84;;;7.82
19568;BMP280;9930;49.240;8.548;2023-02-07T15:27:20;102631.81;;;7.80
19568;BMP280;9930;49.240;8.548;2023-02-07T15:30:06;102644.78;;;7.83
19568;BMP280;9930;49.240;8.548;2023-02-07T15:32:50;102637.53;;;7.77
19568;BMP280;9930;49.240;8.548;2023-02-07T15:35:26;102623.69;;;7.74
19568;BMP280;9930;49.240;8.548;2023-02-07T15:37:56;102627.13;;;7.74
19568;BMP280;9930;49.240;8.548;2023-02-07T15:40:39;102624.72;;;7.76
19568;BMP280;9930;49.240;8.548;2023-02-07T15:46:11;102633.59;;;7.71
19568;BMP280;9930;49.240;8.548;2023-02-07T15:48:54;102629.13;;;7.68
19568;BMP280;9930;49.240;8.548;2023-02-07T15:51:30;102625.94;;;7.61
19568;BMP280;9930;49.240;8.548;2023-02-07T15:53:59;102633.06;;;7.65
19568;BMP280;9930;49.240;8.548;2023-02-07T15:56:29;102635.34;;;7.62
19568;BMP280;9930;49.240;8.548;2023-02-07T15:59:08;102631.53;;;7.57
19568;BMP280;9930;49.240;8.548;2023-02-07T16:01:37;102641.94;;;7.60
19568;BMP280;9930;49.240;8.548;2023-02-07T16:04:06;102637.88;;;7.52
19568;BMP280;9930;49.240;8.548;2023-02-07T16:06:36;102646.50;;;7.54
19568;BMP280;9930;49.240;8.548;2023-02-07T16:09:43;102655.50;;;7.50
19568;BMP280;9930;49.240;8.548;2023-02-07T16:12:32;102652.59;;;7.45
19568;BMP280;9930;49.240;8.548;2023-02-07T16:15:20;102659.03;;;7.42
19568;BMP280;9930;49.240;8.548;2023-02-07T16:17:55;102647.97;;;7.31
19568;BMP280;9930;49.240;8.548;2023-02-07T16:20:22;102668.53;;;7.34
19568;BMP280;9930;49.240;8.548;2023-02-07T16:22:57;102663.06;;;7.30
19568;BMP280;9930;49.240;8.548;2023-02-07T16:25:32;102659.72;;;7.21
19568;BMP280;9930;49.240;8.548;2023-02-07T16:28:07;102663.66;;;7.17
19568;BMP280;9930;49.240;8.548;2023-02-07T16:30:37;102643.94;;;7.04
19568;BMP280;9930;49.240;8.548;2023-02-07T16:33:11;102673.81;;;7.17
19568;BMP280;9930;49.240;8.548;2023-02-07T16:35:37;102675.44;;;7.17
19568;BMP280;9930;49.240;8.548;2023-02-07T16:38:05;102671.50;;;7.10
19568;BMP280;9930;49.240;8.548;2023-02-07T16:40:31;102679.09;;;7.10
19568;BMP280;9930;49.240;8.548;2023-02-07T16:43:05;102675.53;;;7.08
19568;BMP280;9930;49.240;8.548;2023-02-07T16:45:36;102682.63;;;7.02
19568;BMP280;9930;49.240;8.548;2023-02-07T16:48:05;102664.94;;;6.93
19568;BMP280;9930;49.240;8.548;2023-02-07T16:50:30;102674.31;;;6.94
19568;BMP280;9930;49.240;8.548;2023-02-07T16:52:59;102686.75;;;6.91
19568;BMP280;9930;49.240;8.548;2023-02-07T16:55:29;102677.09;;;6.87
19568;BMP280;9930;49.240;8.548;2023-02-07T16:57:56;102671.94;;;6.77